Weather History for Venice, FL

Change the Weather History Date:

Sunday, December 16, 2012

  Actual Average Record
Temperature  
Mean Temperature 68 °F -  
Max Temperature 77 °F 73 °F 83 °F (1971)
Min Temperature 59 °F 55 °F 30 °F (1968)
Cooling Degree Days 3    
Growing Degree Days 18 (Base 50)    
Moisture  
Dew Point 63 °F    
Average Humidity 86    
Maximum Humidity 100    
Minimum Humidity 65    
Precipitation  
Precipitation 0.00 in - - ()
Sea Level Pressure  
Sea Level Pressure 30.02 in    
Wind  
Wind Speed 6 mph (ESE)    
Max Wind Speed 13 mph    
Max Gust Speed 16 mph    
Visibility 10 miles    
Events      
Averages and records for this station are not official NWS values.
T = Trace of Precipitation, MM = Missing Value Source: NWS Daily Summary

Daily Weather History Graph

Daily Weather History Graph

Search for Another Location

Airport:

Trip Planner

Search our weather history database for the weather conditions in past years. The results will help you decide how hot, cold, wet, or windy it might be!

Date:

Astronomy

Dec. 16, 2012 Rise Set
Actual Time 7:12 AM EST 5:38 PM EST
Civil Twilight 6:46 AM EST 6:04 PM EST
Nautical Twilight 6:17 AM EST 6:33 PM EST
Astronomical Twilight 5:49 AM EST 7:02 PM EST
Moon 10:00 AM EST (12/16) 9:34 PM EST (12/16)
Length of Visible Light 11h 17m
Length of Day
10h 26m
Waxing Crescent, 16% of the Moon is Illuminated
Dec 16
Waxing Crescent
Dec 20
First Quarter
Dec 28
Full
Jan 4
Last Quarter
Jan 11
New

Hourly Weather History & Observations

Time (EST) Temp. Dew Point Humidity Pressure Visibility Wind Dir Wind Speed Gust Speed Precip Events Conditions
12:15 AM 62.6 °F 60.8 °F 94% 30.06 in 10.0 mi East 4.6 mph - N/A   Clear
12:35 AM 62.6 °F 59.0 °F 88% 30.06 in 10.0 mi ENE 6.9 mph - N/A   Clear
12:55 AM 62.6 °F 59.0 °F 88% 30.05 in 10.0 mi ENE 5.8 mph - N/A   Clear
1:15 AM 60.8 °F 59.0 °F 94% 30.05 in 10.0 mi ENE 5.8 mph - N/A   Clear
1:35 AM 60.8 °F 59.0 °F 94% 30.05 in 10.0 mi ENE 4.6 mph - N/A   Clear
1:55 AM 60.8 °F 59.0 °F 94% 30.05 in 10.0 mi NE 6.9 mph - N/A   Clear
2:15 AM 59.0 °F 59.0 °F 100% 30.04 in 10.0 mi ENE 5.8 mph - N/A   Clear
2:35 AM 60.8 °F 59.0 °F 94% 30.05 in 10.0 mi NE 6.9 mph - N/A   Clear
3:15 AM 60.8 °F 59.0 °F 94% 30.03 in 10.0 mi East 8.1 mph - N/A   Clear
3:35 AM 60.8 °F 59.0 °F 94% 30.03 in 10.0 mi East 5.8 mph - N/A   Clear
4:15 AM 60.8 °F 59.0 °F 94% 30.05 in 10.0 mi ENE 6.9 mph - N/A   Clear
4:35 AM 60.8 °F 59.0 °F 94% 30.03 in 10.0 mi East 8.1 mph - N/A   Clear
4:55 AM 60.8 °F 59.0 °F 94% 30.03 in 10.0 mi East 8.1 mph - N/A   Clear
5:15 AM 60.8 °F 59.0 °F 94% 30.03 in 10.0 mi East 6.9 mph - N/A   Clear
5:35 AM 60.8 °F 59.0 °F 94% 30.03 in 10.0 mi East 8.1 mph - N/A   Clear
5:55 AM 60.8 °F 59.0 °F 94% 30.04 in 9.0 mi East 6.9 mph - N/A   Clear
6:15 AM 60.8 °F 59.0 °F 94% 30.04 in 10.0 mi East 6.9 mph - N/A   Clear
6:35 AM 60.8 °F 59.0 °F 94% 30.04 in 10.0 mi East 6.9 mph - N/A   Clear
6:55 AM 60.8 °F 59.0 °F 94% 30.03 in 9.0 mi East 5.8 mph - N/A   Clear
7:15 AM 60.8 °F 59.0 °F 94% 30.04 in 9.0 mi East 6.9 mph - N/A   Clear
7:35 AM 62.6 °F 60.8 °F 94% 30.05 in 8.0 mi East 4.6 mph - N/A   Clear
7:55 AM 62.6 °F 62.6 °F 100% 30.06 in 9.0 mi ENE 4.6 mph - N/A   Clear
8:15 AM 64.4 °F 62.6 °F 94% 30.06 in 10.0 mi ENE 5.8 mph - N/A   Clear
8:35 AM 66.2 °F 62.6 °F 88% 30.07 in 10.0 mi East 8.1 mph - N/A   Clear
8:55 AM 68.0 °F 64.4 °F 88% 30.07 in 10.0 mi East 4.6 mph - N/A   Clear
9:15 AM 69.8 °F 64.4 °F 83% 30.07 in 10.0 mi ESE 5.8 mph - N/A   Clear
9:55 AM 73.4 °F 64.4 °F 73% 30.07 in 10.0 mi SE 5.8 mph - N/A   Clear
10:15 AM 73.4 °F 66.2 °F 78% 30.07 in 10.0 mi SE 6.9 mph - N/A   Clear
10:35 AM 75.2 °F 66.2 °F 73% 30.06 in 10.0 mi SE 10.4 mph - N/A   Clear
10:55 AM 77.0 °F 66.2 °F 69% 30.05 in 10.0 mi ESE 8.1 mph - N/A   Clear
11:15 AM 77.0 °F 64.4 °F 65% 30.05 in 10.0 mi SE 8.1 mph - N/A   Clear
11:35 AM 77.0 °F 66.2 °F 69% 30.04 in 10.0 mi South 6.9 mph - N/A   Clear
11:55 AM 75.2 °F 66.2 °F 73% 30.04 in 10.0 mi South 9.2 mph - N/A   Clear
12:15 PM 77.0 °F 66.2 °F 69% 30.03 in 10.0 mi South 9.2 mph - N/A   Clear
12:35 PM 77.0 °F 64.4 °F 65% 30.01 in 10.0 mi South 12.7 mph - N/A   Clear
12:55 PM 77.0 °F 66.2 °F 69% 30.01 in 10.0 mi SSW 9.2 mph - N/A   Clear
1:15 PM 77.0 °F 66.2 °F 69% 30.00 in 10.0 mi South 11.5 mph 16.1 mph N/A   Clear
1:35 PM 77.0 °F 66.2 °F 69% 29.98 in 10.0 mi SSW 10.4 mph - N/A   Clear
1:55 PM 75.2 °F 66.2 °F 73% 29.97 in 10.0 mi South 10.4 mph - N/A   Clear
2:15 PM 77.0 °F 66.2 °F 69% 29.98 in 10.0 mi SSW 10.4 mph - N/A   Clear
2:35 PM 75.2 °F 66.2 °F 73% 29.99 in 10.0 mi SSW 10.4 mph - N/A   Clear
2:55 PM 75.2 °F 66.2 °F 73% 29.98 in 10.0 mi SSW 9.2 mph - N/A   Clear
3:15 PM 77.0 °F 64.4 °F 65% 29.97 in 10.0 mi South 8.1 mph - N/A   Clear
3:35 PM 75.2 °F 66.2 °F 73% 29.98 in 10.0 mi SSW 8.1 mph - N/A   Clear
3:55 PM 73.4 °F 66.2 °F 78% 29.98 in 10.0 mi SSW 6.9 mph - N/A   Clear
4:15 PM 73.4 °F 64.4 °F 73% 29.98 in 10.0 mi SSW 5.8 mph - N/A   Clear
4:35 PM 73.4 °F 64.4 °F 73% 29.98 in 10.0 mi SSW 4.6 mph - N/A   Clear
4:55 PM 73.4 °F 66.2 °F 78% 29.98 in 10.0 mi SSW 3.5 mph - N/A   Clear
5:15 PM 71.6 °F 66.2 °F 83% 29.98 in 10.0 mi SSW 3.5 mph - N/A   Clear
5:35 PM 71.6 °F 66.2 °F 83% 29.98 in 10.0 mi Calm Calm - N/A   Clear
5:55 PM 71.6 °F 66.2 °F 83% 29.98 in 10.0 mi Calm Calm - N/A   Clear
6:15 PM 69.8 °F 64.4 °F 83% 29.98 in 10.0 mi Calm Calm - N/A   Clear
6:35 PM 68.0 °F 64.4 °F 88% 29.97 in 10.0 mi SE 3.5 mph - N/A   Clear
6:55 PM 68.0 °F 64.4 °F 88% 29.97 in 10.0 mi Calm Calm - N/A   Clear
7:15 PM 66.2 °F 64.4 °F 94% 29.98 in 10.0 mi Calm Calm - N/A   Clear
7:35 PM 66.2 °F 64.4 °F 94% 29.97 in 10.0 mi Calm Calm - N/A   Clear
7:55 PM 66.2 °F 64.4 °F 94% 29.98 in 10.0 mi Calm Calm - N/A   Clear
8:15 PM 66.2 °F 64.4 °F 94% 29.97 in 10.0 mi SE 3.5 mph - N/A   Clear
8:35 PM 64.4 °F 62.6 °F 94% 29.97 in 10.0 mi Calm Calm - N/A   Clear
8:55 PM 66.2 °F 64.4 °F 94% 29.98 in 10.0 mi Calm Calm - N/A   Clear
9:15 PM 66.2 °F 64.4 °F 94% 29.99 in 10.0 mi Calm Calm - N/A   Clear
9:35 PM 64.4 °F 62.6 °F 94% 29.99 in 10.0 mi Calm Calm - N/A   Clear
9:55 PM 64.4 °F 62.6 °F 94% 30.00 in 10.0 mi ENE 3.5 mph - N/A   Clear
10:15 PM 64.4 °F 62.6 °F 94% 30.00 in 10.0 mi NE 3.5 mph - N/A   Clear
10:35 PM 64.4 °F 62.6 °F 94% 30.00 in 10.0 mi ENE 3.5 mph - N/A   Clear
10:55 PM 64.4 °F 62.6 °F 94% 30.00 in 10.0 mi Calm Calm - N/A   Clear
11:15 PM 64.4 °F 62.6 °F 94% 30.00 in 10.0 mi Calm Calm - N/A   Clear
11:35 PM 64.4 °F 62.6 °F 94% 30.01 in 10.0 mi NE 4.6 mph - N/A   Clear
11:55 PM 64.4 °F 62.6 °F 94% 30.01 in 10.0 mi NE 3.5 mph - N/A   Clear